sensor_id;sensor_type;location;lat;lon;timestamp;P1;durP1;ratioP1;P2;durP2;ratioP2
39308;SDS011;26019;47.510;19.122;2024-01-16T00:05:58;3.88;;;2.30;;
39308;SDS011;26019;47.510;19.122;2024-01-16T00:16:03;3.47;;;2.60;;
39308;SDS011;26019;47.510;19.122;2024-01-16T00:26:05;2.40;;;1.80;;
39308;SDS011;26019;47.510;19.122;2024-01-16T00:36:07;2.28;;;1.77;;
39308;SDS011;26019;47.510;19.122;2024-01-16T00:46:10;2.10;;;1.90;;
39308;SDS011;26019;47.510;19.122;2024-01-16T00:56:16;2.38;;;2.08;;
39308;SDS011;26019;47.510;19.122;2024-01-16T01:06:18;2.38;;;2.13;;
39308;SDS011;26019;47.510;19.122;2024-01-16T01:16:25;1.98;;;1.77;;
39308;SDS011;26019;47.510;19.122;2024-01-16T01:26:27;3.10;;;2.25;;
39308;SDS011;26019;47.510;19.122;2024-01-16T01:36:29;2.53;;;2.03;;
39308;SDS011;26019;47.510;19.122;2024-01-16T01:46:35;2.17;;;1.92;;
39308;SDS011;26019;47.510;19.122;2024-01-16T01:56:42;4.35;;;2.75;;
39308;SDS011;26019;47.510;19.122;2024-01-16T02:06:48;3.28;;;2.40;;
39308;SDS011;26019;47.510;19.122;2024-01-16T02:16:52;2.85;;;2.20;;
39308;SDS011;26019;47.510;19.122;2024-01-16T02:26:55;2.50;;;2.13;;
39308;SDS011;26019;47.510;19.122;2024-01-16T02:36:58;3.97;;;2.10;;
39308;SDS011;26019;47.510;19.122;2024-01-16T02:47:01;3.72;;;2.70;;
39308;SDS011;26019;47.510;19.122;2024-01-16T02:57:04;5.07;;;2.80;;
39308;SDS011;26019;47.510;19.122;2024-01-16T03:07:06;4.20;;;2.42;;
39308;SDS011;26019;47.510;19.122;2024-01-16T03:17:23;3.53;;;2.88;;
39308;SDS011;26019;47.510;19.122;2024-01-16T03:38:00;4.13;;;2.92;;
39308;SDS011;26019;47.510;19.122;2024-01-16T03:48:02;3.95;;;2.70;;
39308;SDS011;26019;47.510;19.122;2024-01-16T03:58:05;2.87;;;2.33;;
39308;SDS011;26019;47.510;19.122;2024-01-16T04:08:06;4.97;;;2.83;;
39308;SDS011;26019;47.510;19.122;2024-01-16T04:18:09;4.00;;;2.92;;
39308;SDS011;26019;47.510;19.122;2024-01-16T04:28:11;4.38;;;3.03;;
39308;SDS011;26019;47.510;19.122;2024-01-16T04:38:12;3.78;;;2.95;;
39308;SDS011;26019;47.510;19.122;2024-01-16T04:48:14;4.90;;;3.25;;
39308;SDS011;26019;47.510;19.122;2024-01-16T04:58:16;5.55;;;2.63;;
39308;SDS011;26019;47.510;19.122;2024-01-16T05:08:21;2.77;;;1.57;;
39308;SDS011;26019;47.510;19.122;2024-01-16T05:28:27;4.30;;;3.25;;
39308;SDS011;26019;47.510;19.122;2024-01-16T05:38:29;3.28;;;2.22;;
39308;SDS011;26019;47.510;19.122;2024-01-16T05:48:30;5.18;;;2.88;;
39308;SDS011;26019;47.510;19.122;2024-01-16T05:58:32;4.25;;;2.70;;
39308;SDS011;26019;47.510;19.122;2024-01-16T06:08:40;4.00;;;2.78;;
39308;SDS011;26019;47.510;19.122;2024-01-16T06:18:43;6.22;;;2.95;;
39308;SDS011;26019;47.510;19.122;2024-01-16T06:28:49;4.88;;;2.53;;
39308;SDS011;26019;47.510;19.122;2024-01-16T06:38:51;3.35;;;2.67;;
39308;SDS011;26019;47.510;19.122;2024-01-16T06:48:52;6.07;;;3.47;;
39308;SDS011;26019;47.510;19.122;2024-01-16T06:58:54;4.70;;;3.10;;
39308;SDS011;26019;47.510;19.122;2024-01-16T07:08:57;8.27;;;3.40;;
39308;SDS011;26019;47.510;19.122;2024-01-16T07:18:59;7.05;;;2.92;;
39308;SDS011;26019;47.510;19.122;2024-01-16T07:29:01;5.95;;;2.75;;
39308;SDS011;26019;47.510;19.122;2024-01-16T07:39:09;4.25;;;2.40;;
39308;SDS011;26019;47.510;19.122;2024-01-16T07:49:12;4.18;;;2.50;;
39308;SDS011;26019;47.510;19.122;2024-01-16T07:59:14;5.00;;;2.63;;
39308;SDS011;26019;47.510;19.122;2024-01-16T08:09:16;2.60;;;2.20;;
39308;SDS011;26019;47.510;19.122;2024-01-16T08:19:18;4.45;;;2.58;;
39308;SDS011;26019;47.510;19.122;2024-01-16T08:29:21;5.75;;;2.83;;
39308;SDS011;26019;47.510;19.122;2024-01-16T08:39:23;3.90;;;2.53;;
39308;SDS011;26019;47.510;19.122;2024-01-16T08:49:30;5.93;;;2.70;;
39308;SDS011;26019;47.510;19.122;2024-01-16T08:59:33;6.85;;;2.45;;
39308;SDS011;26019;47.510;19.122;2024-01-16T09:09:43;3.92;;;2.20;;
39308;SDS011;26019;47.510;19.122;2024-01-16T09:19:45;4.00;;;2.45;;
39308;SDS011;26019;47.510;19.122;2024-01-16T09:29:47;6.03;;;2.60;;
39308;SDS011;26019;47.510;19.122;2024-01-16T09:39:49;9.02;;;3.17;;
39308;SDS011;26019;47.510;19.122;2024-01-16T09:49:52;7.75;;;2.80;;
39308;SDS011;26019;47.510;19.122;2024-01-16T09:59:56;5.32;;;2.30;;
39308;SDS011;26019;47.510;19.122;2024-01-16T10:09:59;4.43;;;2.05;;
39308;SDS011;26019;47.510;19.122;2024-01-16T10:20:01;4.22;;;1.98;;
39308;SDS011;26019;47.510;19.122;2024-01-16T10:40:16;7.45;;;2.58;;
39308;SDS011;26019;47.510;19.122;2024-01-16T10:50:25;5.97;;;2.03;;
39308;SDS011;26019;47.510;19.122;2024-01-16T11:00:28;4.22;;;2.03;;
39308;SDS011;26019;47.510;19.122;2024-01-16T11:20:44;5.07;;;2.30;;
39308;SDS011;26019;47.510;19.122;2024-01-16T11:31:26;3.83;;;2.38;;
39308;SDS011;26019;47.510;19.122;2024-01-16T11:41:52;3.15;;;2.15;;
39308;SDS011;26019;47.510;19.122;2024-01-16T11:51:59;5.43;;;2.00;;
39308;SDS011;26019;47.510;19.122;2024-01-16T12:02:02;5.83;;;2.30;;
39308;SDS011;26019;47.510;19.122;2024-01-16T12:12:12;4.88;;;2.00;;
39308;SDS011;26019;47.510;19.122;2024-01-16T12:22:20;3.47;;;1.42;;
39308;SDS011;26019;47.510;19.122;2024-01-16T12:32:29;2.05;;;1.70;;
39308;SDS011;26019;47.510;19.122;2024-01-16T12:42:31;4.93;;;1.88;;
39308;SDS011;26019;47.510;19.122;2024-01-16T13:02:36;1.77;;;1.48;;
39308;SDS011;26019;47.510;19.122;2024-01-16T13:12:38;2.45;;;1.48;;
39308;SDS011;26019;47.510;19.122;2024-01-16T13:22:40;1.73;;;1.05;;
39308;SDS011;26019;47.510;19.122;2024-01-16T13:32:48;3.25;;;1.10;;
39308;SDS011;26019;47.510;19.122;2024-01-16T13:42:51;1.08;;;0.90;;
39308;SDS011;26019;47.510;19.122;2024-01-16T13:52:53;1.70;;;0.93;;
39308;SDS011;26019;47.510;19.122;2024-01-16T14:02:58;5.72;;;2.15;;
39308;SDS011;26019;47.510;19.122;2024-01-16T14:13:00;2.90;;;0.95;;
39308;SDS011;26019;47.510;19.122;2024-01-16T14:23:02;4.78;;;1.30;;
39308;SDS011;26019;47.510;19.122;2024-01-16T14:33:12;2.42;;;1.23;;
39308;SDS011;26019;47.510;19.122;2024-01-16T14:43:21;5.07;;;1.13;;
39308;SDS011;26019;47.510;19.122;2024-01-16T14:53:26;3.00;;;0.88;;
39308;SDS011;26019;47.510;19.122;2024-01-16T15:03:28;2.87;;;1.00;;
39308;SDS011;26019;47.510;19.122;2024-01-16T15:13:31;2.35;;;1.00;;
39308;SDS011;26019;47.510;19.122;2024-01-16T15:23:33;2.03;;;1.13;;
39308;SDS011;26019;47.510;19.122;2024-01-16T15:33:36;4.65;;;1.55;;
39308;SDS011;26019;47.510;19.122;2024-01-16T15:43:41;3.37;;;1.20;;
39308;SDS011;26019;47.510;19.122;2024-01-16T15:53:43;5.68;;;2.25;;
39308;SDS011;26019;47.510;19.122;2024-01-16T16:03:45;5.70;;;2.50;;
39308;SDS011;26019;47.510;19.122;2024-01-16T16:13:49;7.93;;;3.07;;
39308;SDS011;26019;47.510;19.122;2024-01-16T16:23:58;12.32;;;2.80;;
39308;SDS011;26019;47.510;19.122;2024-01-16T16:34:03;8.45;;;2.97;;
39308;SDS011;26019;47.510;19.122;2024-01-16T16:44:08;10.35;;;2.95;;
39308;SDS011;26019;47.510;19.122;2024-01-16T16:54:11;6.40;;;2.22;;
39308;SDS011;26019;47.510;19.122;2024-01-16T17:04:15;7.83;;;2.77;;
39308;SDS011;26019;47.510;19.122;2024-01-16T17:14:18;14.50;;;4.90;;
39308;SDS011;26019;47.510;19.122;2024-01-16T17:24:21;9.27;;;3.83;;
39308;SDS011;26019;47.510;19.122;2024-01-16T17:34:22;13.10;;;4.57;;
39308;SDS011;26019;47.510;19.122;2024-01-16T17:44:24;12.55;;;5.57;;
39308;SDS011;26019;47.510;19.122;2024-01-16T17:54:26;11.80;;;6.30;;
39308;SDS011;26019;47.510;19.122;2024-01-16T18:04:28;18.17;;;7.28;;
39308;SDS011;26019;47.510;19.122;2024-01-16T18:14:30;16.20;;;7.90;;
39308;SDS011;26019;47.510;19.122;2024-01-16T18:24:32;16.65;;;9.35;;
39308;SDS011;26019;47.510;19.122;2024-01-16T18:34:34;25.23;;;13.45;;
39308;SDS011;26019;47.510;19.122;2024-01-16T18:44:37;27.27;;;12.15;;
39308;SDS011;26019;47.510;19.122;2024-01-16T19:04:43;24.10;;;11.82;;
39308;SDS011;26019;47.510;19.122;2024-01-16T19:14:48;27.63;;;14.98;;
39308;SDS011;26019;47.510;19.122;2024-01-16T19:24:52;30.02;;;15.90;;
39308;SDS011;26019;47.510;19.122;2024-01-16T19:34:54;31.67;;;15.98;;
39308;SDS011;26019;47.510;19.122;2024-01-16T19:44:56;31.17;;;16.40;;
39308;SDS011;26019;47.510;19.122;2024-01-16T19:55:01;35.92;;;17.80;;
39308;SDS011;26019;47.510;19.122;2024-01-16T20:05:07;25.98;;;16.13;;
39308;SDS011;26019;47.510;19.122;2024-01-16T20:15:10;28.70;;;15.88;;
39308;SDS011;26019;47.510;19.122;2024-01-16T20:25:14;31.38;;;15.00;;
39308;SDS011;26019;47.510;19.122;2024-01-16T20:35:20;29.92;;;15.43;;
39308;SDS011;26019;47.510;19.122;2024-01-16T20:45:32;28.98;;;15.05;;
39308;SDS011;26019;47.510;19.122;2024-01-16T20:55:35;37.28;;;15.23;;
39308;SDS011;26019;47.510;19.122;2024-01-16T21:05:39;28.95;;;15.93;;
39308;SDS011;26019;47.510;19.122;2024-01-16T21:15:41;32.17;;;17.73;;
39308;SDS011;26019;47.510;19.122;2024-01-16T21:35:48;36.05;;;18.40;;
39308;SDS011;26019;47.510;19.122;2024-01-16T21:45:53;34.05;;;15.85;;
39308;SDS011;26019;47.510;19.122;2024-01-16T21:55:55;29.13;;;15.10;;
39308;SDS011;26019;47.510;19.122;2024-01-16T22:05:57;30.35;;;15.30;;
39308;SDS011;26019;47.510;19.122;2024-01-16T22:15:59;26.83;;;14.98;;
39308;SDS011;26019;47.510;19.122;2024-01-16T22:26:01;30.38;;;15.15;;
39308;SDS011;26019;47.510;19.122;2024-01-16T22:36:05;29.40;;;16.20;;
39308;SDS011;26019;47.510;19.122;2024-01-16T22:46:13;31.95;;;17.23;;
39308;SDS011;26019;47.510;19.122;2024-01-16T22:56:15;29.75;;;16.95;;
39308;SDS011;26019;47.510;19.122;2024-01-16T23:06:17;32.50;;;17.60;;
39308;SDS011;26019;47.510;19.122;2024-01-16T23:16:22;29.13;;;15.35;;
39308;SDS011;26019;47.510;19.122;2024-01-16T23:26:24;29.02;;;16.20;;
39308;SDS011;26019;47.510;19.122;2024-01-16T23:36:27;34.65;;;18.38;;
39308;SDS011;26019;47.510;19.122;2024-01-16T23:46:39;35.72;;;18.85;;
39308;SDS011;26019;47.510;19.122;2024-01-16T23:56:40;31.40;;;19.00;;
